sensor_id;sensor_type;location;lat;lon;timestamp;P1;durP1;ratioP1;P2;durP2;ratioP2
43690;SDS011;29293;52.190;21.226;2022-11-24T00:19:29;52.30;;;22.30;;
43690;SDS011;29293;52.190;21.226;2022-11-24T00:34:36;60.30;;;21.70;;
43690;SDS011;29293;52.190;21.226;2022-11-24T00:49:44;57.00;;;21.50;;
43690;SDS011;29293;52.190;21.226;2022-11-24T01:04:52;52.20;;;22.30;;
43690;SDS011;29293;52.190;21.226;2022-11-24T01:35:05;69.30;;;26.80;;
43690;SDS011;29293;52.190;21.226;2022-11-24T01:50:14;69.20;;;25.70;;
43690;SDS011;29293;52.190;21.226;2022-11-24T02:05:23;62.70;;;25.00;;
43690;SDS011;29293;52.190;21.226;2022-11-24T02:20:33;54.30;;;22.50;;
43690;SDS011;29293;52.190;21.226;2022-11-24T02:50:47;38.70;;;17.80;;
43690;SDS011;29293;52.190;21.226;2022-11-24T03:05:54;39.60;;;17.10;;
43690;SDS011;29293;52.190;21.226;2022-11-24T03:21:01;39.20;;;16.40;;
43690;SDS011;29293;52.190;21.226;2022-11-24T03:36:09;39.00;;;17.70;;
43690;SDS011;29293;52.190;21.226;2022-11-24T03:51:16;36.70;;;16.20;;
43690;SDS011;29293;52.190;21.226;2022-11-24T04:06:23;36.70;;;15.80;;
43690;SDS011;29293;52.190;21.226;2022-11-24T04:21:30;33.20;;;14.90;;
43690;SDS011;29293;52.190;21.226;2022-11-24T04:36:37;33.50;;;14.60;;
43690;SDS011;29293;52.190;21.226;2022-11-24T04:51:45;33.80;;;14.70;;
43690;SDS011;29293;52.190;21.226;2022-11-24T05:21:58;32.50;;;13.80;;
43690;SDS011;29293;52.190;21.226;2022-11-24T05:37:05;28.60;;;12.50;;
43690;SDS011;29293;52.190;21.226;2022-11-24T05:52:12;27.50;;;12.00;;
43690;SDS011;29293;52.190;21.226;2022-11-24T06:22:25;28.10;;;13.20;;
43690;SDS011;29293;52.190;21.226;2022-11-24T06:37:34;30.10;;;14.00;;
43690;SDS011;29293;52.190;21.226;2022-11-24T06:52:42;41.70;;;16.60;;
43690;SDS011;29293;52.190;21.226;2022-11-24T07:07:49;34.70;;;15.70;;
43690;SDS011;29293;52.190;21.226;2022-11-24T07:22:56;33.90;;;16.40;;
43690;SDS011;29293;52.190;21.226;2022-11-24T07:38:03;33.10;;;15.80;;
43690;SDS011;29293;52.190;21.226;2022-11-24T07:53:11;36.50;;;16.90;;
43690;SDS011;29293;52.190;21.226;2022-11-24T08:08:18;33.20;;;15.20;;
43690;SDS011;29293;52.190;21.226;2022-11-24T08:23:25;30.20;;;15.00;;
43690;SDS011;29293;52.190;21.226;2022-11-24T08:38:33;32.30;;;15.30;;
43690;SDS011;29293;52.190;21.226;2022-11-24T08:53:41;31.90;;;15.50;;
43690;SDS011;29293;52.190;21.226;2022-11-24T09:23:55;32.90;;;15.60;;
43690;SDS011;29293;52.190;21.226;2022-11-24T09:39:03;30.40;;;14.80;;
43690;SDS011;29293;52.190;21.226;2022-11-24T09:54:11;32.40;;;16.00;;
43690;SDS011;29293;52.190;21.226;2022-11-24T10:09:28;30.00;;;14.20;;
43690;SDS011;29293;52.190;21.226;2022-11-24T10:40:04;34.30;;;15.90;;
43690;SDS011;29293;52.190;21.226;2022-11-24T10:55:18;34.30;;;16.10;;
43690;SDS011;29293;52.190;21.226;2022-11-24T11:10:26;33.00;;;14.80;;
43690;SDS011;29293;52.190;21.226;2022-11-24T11:25:33;34.70;;;16.30;;
43690;SDS011;29293;52.190;21.226;2022-11-24T11:40:41;32.10;;;15.60;;
43690;SDS011;29293;52.190;21.226;2022-11-24T11:55:52;33.00;;;14.90;;
43690;SDS011;29293;52.190;21.226;2022-11-24T12:11:08;26.80;;;13.70;;
43690;SDS011;29293;52.190;21.226;2022-11-24T12:26:23;35.40;;;16.20;;
43690;SDS011;29293;52.190;21.226;2022-11-24T12:41:42;34.10;;;16.40;;
43690;SDS011;29293;52.190;21.226;2022-11-24T12:57:01;37.40;;;16.70;;
43690;SDS011;29293;52.190;21.226;2022-11-24T13:12:13;31.80;;;16.10;;
43690;SDS011;29293;52.190;21.226;2022-11-24T13:27:30;34.10;;;17.10;;
43690;SDS011;29293;52.190;21.226;2022-11-24T13:58:34;31.20;;;16.70;;
43690;SDS011;29293;52.190;21.226;2022-11-24T14:13:43;39.00;;;19.40;;
43690;SDS011;29293;52.190;21.226;2022-11-24T14:28:50;41.50;;;19.20;;
43690;SDS011;29293;52.190;21.226;2022-11-24T14:44:13;43.60;;;20.40;;
43690;SDS011;29293;52.190;21.226;2022-11-24T14:59:25;43.90;;;19.90;;
43690;SDS011;29293;52.190;21.226;2022-11-24T15:14:47;42.50;;;19.60;;
43690;SDS011;29293;52.190;21.226;2022-11-24T15:29:56;42.30;;;19.10;;
43690;SDS011;29293;52.190;21.226;2022-11-24T15:45:04;48.20;;;21.90;;
43690;SDS011;29293;52.190;21.226;2022-11-24T16:00:14;44.40;;;20.40;;
43690;SDS011;29293;52.190;21.226;2022-11-24T16:15:23;50.00;;;24.00;;
43690;SDS011;29293;52.190;21.226;2022-11-24T16:30:31;54.70;;;23.60;;
43690;SDS011;29293;52.190;21.226;2022-11-24T16:45:38;46.50;;;22.20;;
43690;SDS011;29293;52.190;21.226;2022-11-24T17:00:45;50.90;;;23.50;;
43690;SDS011;29293;52.190;21.226;2022-11-24T17:15:52;49.80;;;24.00;;
43690;SDS011;29293;52.190;21.226;2022-11-24T17:31:05;54.80;;;26.50;;
43690;SDS011;29293;52.190;21.226;2022-11-24T17:46:13;58.60;;;27.50;;
43690;SDS011;29293;52.190;21.226;2022-11-24T18:16:27;63.30;;;27.70;;
43690;SDS011;29293;52.190;21.226;2022-11-24T18:31:35;80.20;;;31.40;;
43690;SDS011;29293;52.190;21.226;2022-11-24T19:01:49;107.50;;;35.40;;
43690;SDS011;29293;52.190;21.226;2022-11-24T19:32:05;107.60;;;32.90;;
43690;SDS011;29293;52.190;21.226;2022-11-24T19:47:12;106.50;;;35.60;;
43690;SDS011;29293;52.190;21.226;2022-11-24T20:02:19;98.70;;;30.20;;
43690;SDS011;29293;52.190;21.226;2022-11-24T20:17:28;116.30;;;36.10;;
43690;SDS011;29293;52.190;21.226;2022-11-24T20:32:35;120.00;;;37.70;;
43690;SDS011;29293;52.190;21.226;2022-11-24T20:47:43;116.30;;;33.80;;
43690;SDS011;29293;52.190;21.226;2022-11-24T21:02:50;136.60;;;38.40;;
43690;SDS011;29293;52.190;21.226;2022-11-24T21:18:00;126.10;;;37.20;;
43690;SDS011;29293;52.190;21.226;2022-11-24T21:33:08;95.00;;;27.70;;
43690;SDS011;29293;52.190;21.226;2022-11-24T21:48:15;118.80;;;32.50;;
43690;SDS011;29293;52.190;21.226;2022-11-24T22:03:22;126.90;;;36.60;;
43690;SDS011;29293;52.190;21.226;2022-11-24T22:18:31;102.90;;;28.90;;
43690;SDS011;29293;52.190;21.226;2022-11-24T22:33:40;86.80;;;26.30;;
43690;SDS011;29293;52.190;21.226;2022-11-24T22:48:48;107.90;;;32.10;;
43690;SDS011;29293;52.190;21.226;2022-11-24T23:03:56;119.10;;;34.70;;
43690;SDS011;29293;52.190;21.226;2022-11-24T23:19:04;93.20;;;28.70;;
43690;SDS011;29293;52.190;21.226;2022-11-24T23:49:17;104.10;;;30.90;;
